| time (UTC) | temp C | wind direction | speed KPH | gust KPH | rain 1hr cm | rain 24hr cm | rain mn cm | humidity % | barometer mb |
| 20260905184604 | 34 | 304 | 17.7 | 32.2 | 0.00 | 0.00 | 0.00 | 58 | 1013.5 |
| 20260905183109 | 34 | 151 | 8.0 | 17.7 | 0.00 | 0.00 | 0.00 | 59 | 1013.9 |
| 20260905181558 | 33 | 149 | 8.0 | 16.1 | 0.00 | 0.00 | 0.00 | 61 | 1013.9 |
| 20260905174555 | 32 | 151 | 9.7 | 17.7 | 0.00 | 0.00 | 0.00 | 63 | 1014.2 |
| 20260905173057 | 32 | 156 | 1.6 | 14.5 | 0.00 | 0.00 | 0.00 | 66 | 1014.4 |
| 20260905171554 | 31 | 113 | 8.0 | 16.1 | 0.00 | 0.00 | 0.00 | 65 | 1014.6 |
| 20260905164558 | 31 | 146 | 12.9 | 19.3 | 0.00 | 0.00 | 0.00 | 67 | 1015.1 |
| 20260905163108 | 30 | 123 | 12.9 | 19.3 | 0.00 | 0.00 | 0.00 | 69 | 1015.1 |
| 20260905161600 | 30 | 176 | 11.3 | 19.3 | 0.00 | 0.00 | 0.00 | 70 | 1015.0 |
| 20260905160100 | 30 | 163 | 16.1 | 22.5 | 0.00 | 0.00 | 0.00 | 71 | 1015.3 |
| 20260905154554 | 29 | 94 | 14.5 | 22.5 | 0.00 | 0.00 | 0.00 | 71 | 1015.5 |
| 20260905153111 | 29 | 138 | 16.1 | 20.9 | 0.00 | 0.00 | 0.00 | 72 | 1015.3 |
| 20260905151608 | 28 | 71 | 17.7 | 25.7 | 0.00 | 0.00 | 0.00 | 75 | 1015.6 |
| 20260905150058 | 28 | 98 | 17.7 | 25.7 | 0.00 | 0.00 | 0.00 | 77 | 1015.4 |
| 20260905144554 | 28 | 107 | 12.9 | 22.5 | 0.00 | 0.00 | 0.00 | 78 | 1015.3 |
| 20260905143105 | 28 | 104 | 19.3 | 30.6 | 0.00 | 0.00 | 0.00 | 79 | 1015.4 |
| 20260905141621 | 28 | 94 | 22.5 | 32.2 | 0.00 | 0.00 | 0.00 | 78 | 1015.2 |
| 20260905140106 | 28 | 80 | 14.5 | 24.1 | 0.00 | 0.00 | 0.00 | 78 | 1015.4 |
| 20260905134552 | 27 | 100 | 4.8 | 17.7 | 0.00 | 0.00 | 0.00 | 82 | 1015.5 |
| 20260905133059 | 26 | 80 | 14.5 | 24.1 | 0.00 | 0.00 | 0.00 | 84 | 1015.5 |
| 20260905131616 | 26 | 151 | 1.6 | 4.8 | 0.00 | 0.00 | 0.00 | 89 | 1014.9 |
| 20260905130057 | 25 | 49 | 1.6 | 4.8 | 0.00 | 0.00 | 0.00 | 93 | 1015.1 |
| 20260905124550 | 25 | 67 | 1.6 | 6.4 | 0.00 | 0.00 | 0.00 | 94 | 1014.9 |
| 20260905123106 | 24 | 0 | 0.0 | 3.2 | 0.00 | 0.00 | 0.00 | 95 | 1015.0 |
| 20260905121555 | 23 | 165 | 1.6 | 3.2 | 0.00 | 0.00 | 0.00 | 96 | 1014.7 |
| 20260905120105 | 23 | 0 | 0.0 | 4.8 | 0.00 | 0.00 | 0.00 | 96 | 1014.9 |
| 20260905114558 | 22 | 10 | 1.6 | 3.2 | 0.00 | 0.00 | 0.00 | 96 | 1014.6 |
| 20260905113054 | 22 | 0 | 0.0 | 3.2 | 0.00 | 0.00 | 0.00 | 95 | 1014.5 |
| 20260905111550 | 23 | 0 | 0.0 | 3.2 | 0.00 | 0.00 | 0.00 | 96 | 1014.5 |
| 20260905110106 | 23 | 15 | 1.6 | 4.8 | 0.00 | 0.00 | 0.00 | 95 | 1014.2 |
| 20260905104558 | 23 | 134 | 1.6 | 4.8 | 0.00 | 0.00 | 0.00 | 95 | 1014.1 |
| 20260905103053 | 23 | 0 | 0.0 | 3.2 | 0.00 | 0.00 | 0.00 | 95 | 1014.3 |
| 20260905101553 | 23 | 185 | 1.6 | 4.8 | 0.00 | 0.00 | 0.00 | 95 | 1014.5 |
| 20260905100121 | 23 | 185 | 3.2 | 4.8 | 0.00 | 0.00 | 0.00 | 95 | 1014.4 |
| 20260905094552 | 23 | 133 | 1.6 | 3.2 | 0.00 | 0.00 | 0.00 | 95 | 1014.3 |
| 20260905093054 | 23 | 85 | 1.6 | 3.2 | 0.00 | 0.00 | 0.00 | 95 | 1014.3 |
| 20260905091601 | 23 | 107 | 0.0 | 3.2 | 0.00 | 0.00 | 0.00 | 94 | 1014.4 |
| 20260905090135 | 23 | 0 | 0.0 | 0.0 | 0.00 | 0.00 | 0.00 | 93 | 1014.2 |
| 20260905084554 | 24 | 0 | 0.0 | 0.0 | 0.00 | 0.00 | 0.00 | 92 | 1014.0 |
| 20260905083054 | 24 | 0 | 0.0 | 0.0 | 0.00 | 0.00 | 0.00 | 93 | 1013.9 |
| 20260905081605 | 24 | 0 | 0.0 | 1.6 | 0.00 | 0.00 | 0.00 | 93 | 1013.8 |
| 20260905080056 | 24 | 192 | 4.8 | 6.4 | 0.00 | 0.00 | 0.00 | 93 | 1013.6 |
| 20260905074607 | 24 | 192 | 3.2 | 6.4 | 0.00 | 0.00 | 0.00 | 94 | 1013.5 |
| 20260905073100 | 24 | 103 | 1.6 | 3.2 | 0.00 | 0.00 | 0.00 | 94 | 1013.8 |
| 20260905071555 | 24 | 0 | 0.0 | 3.2 | 0.00 | 0.00 | 0.00 | 94 | 1014.1 |
| 20260905070059 | 24 | 0 | 0.0 | 0.0 | 0.00 | 0.00 | 0.00 | 93 | 1014.2 |
| 20260905064553 | 25 | 0 | 0.0 | 0.0 | 0.00 | 0.00 | 0.00 | 93 | 1014.3 |
| 20260905063058 | 25 | 0 | 0.0 | 1.6 | 0.00 | 0.00 | 0.00 | 93 | 1014.3 |
| 20260905061557 | 25 | 0 | 0.0 | 0.0 | 0.00 | 0.00 | 0.00 | 93 | 1014.3 |
| 20260905060055 | 25 | 0 | 0.0 | 3.2 | 0.00 | 0.00 | 0.00 | 93 | 1014.3 |
| 20260905054603 | 25 | 103 | 1.6 | 4.8 | 0.00 | 0.00 | 0.00 | 93 | 1014.4 |
| 20260905053102 | 25 | 0 | 0.0 | 0.0 | 0.00 | 0.00 | 0.00 | 92 | 1014.6 |
| 20260905051611 | 25 | 0 | 0.0 | 0.0 | 0.00 | 0.00 | 0.00 | 92 | 1014.8 |
| 20260905050107 | 25 | 0 | 0.0 | 0.0 | 0.00 | 0.00 | 0.00 | 91 | 1014.9 |
| 20260905044603 | 25 | 0 | 0.0 | 0.0 | 0.00 | 0.00 | 0.00 | 91 | 1014.9 |
| 20260905043059 | 25 | 0 | 0.0 | 3.2 | 0.00 | 0.00 | 0.00 | 91 | 1014.9 |
| 20260905041557 | 25 | 0 | 0.0 | 0.0 | 0.00 | 0.00 | 0.00 | 90 | 1014.7 |
| 20260905040105 | 25 | 352 | 0.0 | 3.2 | 0.00 | 0.00 | 0.00 | 90 | 1014.9 |
| 20260905034557 | 25 | 0 | 0.0 | 3.2 | 0.00 | 0.00 | 0.00 | 91 | 1014.9 |
| 20260905033110 | 25 | 360 | 1.6 | 4.8 | 0.00 | 0.00 | 0.00 | 91 | 1015.0 |
| 20260905031622 | 26 | 0 | 0.0 | 1.6 | 0.00 | 0.00 | 0.00 | 90 | 1014.9 |
| 20260905030058 | 26 | 171 | 1.6 | 6.4 | 0.00 | 0.00 | 0.00 | 91 | 1014.6 |
| 20260905024602 | 26 | 0 | 0.0 | 0.0 | 0.00 | 0.00 | 0.00 | 89 | 1014.9 |
| 20260905023053 | 27 | 0 | 0.0 | 0.0 | 0.00 | 0.00 | 0.00 | 88 | 1014.9 |
| 20260905021553 | 27 | 0 | 0.0 | 0.0 | 0.00 | 0.00 | 0.00 | 84 | 1014.9 |
| 20260905020100 | 27 | 0 | 0.0 | 0.0 | 0.00 | 0.00 | 0.00 | 83 | 1014.7 |
| 20260905014554 | 27 | 0 | 0.0 | 0.0 | 0.00 | 0.00 | 0.00 | 82 | 1014.7 |
| 20260905013058 | 27 | 171 | 1.6 | 6.4 | 0.00 | 0.00 | 0.00 | 82 | 1014.4 |
| 20260905011556 | 28 | 0 | 0.0 | 3.2 | 0.00 | 0.00 | 0.00 | 81 | 1014.3 |
| 20260905010105 | 29 | 123 | 1.6 | 3.2 | 0.00 | 0.00 | 0.00 | 81 | 1014.3 |
| 20260905004554 | 30 | 113 | 1.6 | 3.2 | 0.00 | 0.00 | 0.00 | 78 | 1014.4 |
| 20260905003058 | 31 | 140 | 1.6 | 3.2 | 0.00 | 0.00 | 0.00 | 73 | 1014.2 |
| 20260905001557 | 32 | 0 | 0.0 | 0.0 | 0.00 | 0.00 | 0.00 | 69 | 1014.2 |
| 20260904234553 | 34 | 0 | 0.0 | 0.0 | 0.00 | 0.00 | 0.00 | 55 | 1014.2 |
| 20260904233100 | 34 | 164 | 1.6 | 6.4 | 0.00 | 0.00 | 0.00 | 59 | 1014.2 |
| 20260904231559 | 37 | 177 | 0.0 | 4.8 | 0.00 | 0.00 | 0.00 | 53 | 1014.2 |
| 20260904230107 | 37 | 0 | 0.0 | 6.4 | 0.00 | 0.00 | 0.00 | 47 | 1014.3 |
| 20260904224553 | 37 | 325 | 1.6 | 8.0 | 0.00 | 0.00 | 0.00 | 47 | 1014.2 |
| 20260904223106 | 36 | 0 | 0.0 | 6.4 | 0.00 | 0.00 | 0.00 | 50 | 1014.2 |
| 20260904221557 | 36 | 221 | 1.6 | 8.0 | 0.00 | 0.00 | 0.00 | 49 | 1014.2 |
| 20260904220117 | 36 | 178 | 3.2 | 8.0 | 0.00 | 0.00 | 0.00 | 49 | 1014.2 |
| 20260904214600 | 37 | 236 | 3.2 | 11.3 | 0.00 | 0.00 | 0.00 | 45 | 1014.5 |
| 20260904213056 | 36 | 248 | 8.0 | 14.5 | 0.00 | 0.00 | 0.00 | 46 | 1014.5 |
| 20260904211553 | 37 | 277 | 4.8 | 12.9 | 0.00 | 0.00 | 0.00 | 46 | 1014.6 |
| 20260904210104 | 37 | 321 | 4.8 | 12.9 | 0.00 | 0.00 | 0.00 | 47 | 1014.7 |
| 20260904204556 | 37 | 123 | 1.6 | 14.5 | 0.00 | 0.00 | 0.00 | 48 | 1014.7 |
| 20260904203057 | 36 | 0 | 3.2 | 11.3 | 0.00 | 0.00 | 0.00 | 47 | 1015.0 |
| 20260904201555 | 37 | 268 | 8.0 | 14.5 | 0.00 | 0.00 | 0.00 | 46 | 1015.3 |
| 20260904200100 | 36 | 0 | 1.6 | 22.5 | 0.00 | 0.00 | 0.00 | 48 | 1015.4 |
| 20260904194557 | 37 | 298 | 11.3 | 17.7 | 0.00 | 0.00 | 0.00 | 45 | 1015.5 |
| 20260904193055 | 37 | 320 | 3.2 | 19.3 | 0.00 | 0.00 | 0.00 | 44 | 1015.7 |
| 20260904191554 | 37 | 0 | 4.8 | 16.1 | 0.00 | 0.00 | 0.00 | 45 | 1016.1 |